sensor_id;sensor_type;location;lat;lon;timestamp;temperature;humidity
56123;DHT22;42426;46.104;19.656;2022-11-11T02:49:56;230.70;2252.80
56123;DHT22;42426;46.104;19.656;2022-11-11T02:52:22;230.60;2252.80
56123;DHT22;42426;46.104;19.656;2022-11-11T02:54:49;230.60;2252.80
56123;DHT22;42426;46.104;19.656;2022-11-11T02:57:15;230.60;2252.80
56123;DHT22;42426;46.104;19.656;2022-11-11T02:59:46;230.60;2252.80
56123;DHT22;42426;46.104;19.656;2022-11-11T03:02:12;230.50;2252.80
56123;DHT22;42426;46.104;19.656;2022-11-11T03:04:38;230.50;2252.80
56123;DHT22;42426;46.104;19.656;2022-11-11T03:07:04;230.50;2252.80
56123;DHT22;42426;46.104;19.656;2022-11-11T03:09:30;230.40;2252.80
56123;DHT22;42426;46.104;19.656;2022-11-11T03:11:56;230.40;2252.80
56123;DHT22;42426;46.104;19.656;2022-11-11T03:14:23;230.40;2252.80
56123;DHT22;42426;46.104;19.656;2022-11-11T03:16:49;230.40;2252.80
56123;DHT22;42426;46.104;19.656;2022-11-11T03:19:35;230.40;2252.80
56123;DHT22;42426;46.104;19.656;2022-11-11T03:22:01;230.40;2252.80
56123;DHT22;42426;46.104;19.656;2022-11-11T03:24:29;230.40;2252.80
56123;DHT22;42426;46.104;19.656;2022-11-11T03:27:15;230.40;2252.80
56123;DHT22;42426;46.104;19.656;2022-11-11T03:29:41;230.40;2252.80
56123;DHT22;42426;46.104;19.656;2022-11-11T03:32:07;230.40;2252.80
56123;DHT22;42426;46.104;19.656;2022-11-11T03:34:34;230.40;2252.80
56123;DHT22;42426;46.104;19.656;2022-11-11T03:37:06;230.50;2252.80
56123;DHT22;42426;46.104;19.656;2022-11-11T03:39:50;230.50;2252.80
56123;DHT22;42426;46.104;19.656;2022-11-11T03:42:16;230.60;2252.80
56123;DHT22;42426;46.104;19.656;2022-11-11T03:44:42;230.60;2252.80
56123;DHT22;42426;46.104;19.656;2022-11-11T03:47:08;230.60;2252.80
56123;DHT22;42426;46.104;19.656;2022-11-11T03:49:34;230.60;2252.80
56123;DHT22;42426;46.104;19.656;2022-11-11T03:52:00;230.60;2252.80
56123;DHT22;42426;46.104;19.656;2022-11-11T03:54:26;230.70;2252.80
56123;DHT22;42426;46.104;19.656;2022-11-11T03:56:52;230.60;2252.80
56123;DHT22;42426;46.104;19.656;2022-11-11T03:59:38;230.60;2252.80
56123;DHT22;42426;46.104;19.656;2022-11-11T04:02:04;230.60;2252.80
56123;DHT22;42426;46.104;19.656;2022-11-11T04:04:50;230.60;2252.80
56123;DHT22;42426;46.104;19.656;2022-11-11T04:07:34;230.60;2252.80
56123;DHT22;42426;46.104;19.656;2022-11-11T04:10:18;230.70;2252.80
56123;DHT22;42426;46.104;19.656;2022-11-11T04:12:47;230.60;2252.80
56123;DHT22;42426;46.104;19.656;2022-11-11T04:15:31;230.70;2252.80
56123;DHT22;42426;46.104;19.656;2022-11-11T04:18:16;230.70;2252.80
56123;DHT22;42426;46.104;19.656;2022-11-11T04:20:42;230.70;2252.80
56123;DHT22;42426;46.104;19.656;2022-11-11T04:23:27;230.60;2252.80
56123;DHT22;42426;46.104;19.656;2022-11-11T04:25:53;230.60;2252.80
56123;DHT22;42426;46.104;19.656;2022-11-11T04:28:21;230.70;2252.80
56123;DHT22;42426;46.104;19.656;2022-11-11T04:31:07;230.70;2252.80
56123;DHT22;42426;46.104;19.656;2022-11-11T04:33:33;230.70;2252.80
56123;DHT22;42426;46.104;19.656;2022-11-11T04:35:59;230.80;2252.80
56123;DHT22;42426;46.104;19.656;2022-11-11T04:38:26;230.80;2252.80
56123;DHT22;42426;46.104;19.656;2022-11-11T04:41:10;230.90;2252.80
56123;DHT22;42426;46.104;19.656;2022-11-11T04:43:38;230.90;2252.80
56123;DHT22;42426;46.104;19.656;2022-11-11T04:46:22;230.90;2252.80
56123;DHT22;42426;46.104;19.656;2022-11-11T04:48:48;230.90;2252.80
56123;DHT22;42426;46.104;19.656;2022-11-11T04:51:15;230.80;2252.80
56123;DHT22;42426;46.104;19.656;2022-11-11T04:53:40;230.80;2252.80
56123;DHT22;42426;46.104;19.656;2022-11-11T04:56:07;230.70;2252.80
56123;DHT22;42426;46.104;19.656;2022-11-11T04:58:51;230.80;2252.80
56123;DHT22;42426;46.104;19.656;2022-11-11T05:01:37;230.80;2252.80
56123;DHT22;42426;46.104;19.656;2022-11-11T05:04:21;230.80;2252.80
56123;DHT22;42426;46.104;19.656;2022-11-11T05:06:47;230.80;2252.80
56123;DHT22;42426;46.104;19.656;2022-11-11T05:09:31;230.90;2252.80
56123;DHT22;42426;46.104;19.656;2022-11-11T05:11:57;230.90;2252.80
56123;DHT22;42426;46.104;19.656;2022-11-11T05:14:22;230.90;2252.80
56123;DHT22;42426;46.104;19.656;2022-11-11T05:17:08;230.90;2252.80
56123;DHT22;42426;46.104;19.656;2022-11-11T05:19:56;230.90;2252.80
56123;DHT22;42426;46.104;19.656;2022-11-11T05:22:42;230.90;2252.80
56123;DHT22;42426;46.104;19.656;2022-11-11T05:25:09;231.00;2252.80
56123;DHT22;42426;46.104;19.656;2022-11-11T05:27:58;231.00;2252.80
56123;DHT22;42426;46.104;19.656;2022-11-11T05:30:24;231.00;2252.80
56123;DHT22;42426;46.104;19.656;2022-11-11T05:32:52;231.00;2252.80
56123;DHT22;42426;46.104;19.656;2022-11-11T05:35:22;231.00;2252.80
56123;DHT22;42426;46.104;19.656;2022-11-11T05:37:48;231.00;2252.80
56123;DHT22;42426;46.104;19.656;2022-11-11T05:40:34;231.00;2252.80
56123;DHT22;42426;46.104;19.656;2022-11-11T05:43:00;231.10;2252.80
56123;DHT22;42426;46.104;19.656;2022-11-11T05:45:27;231.10;2252.80
56123;DHT22;42426;46.104;19.656;2022-11-11T05:47:53;231.20;2252.80
56123;DHT22;42426;46.104;19.656;2022-11-11T05:50:19;231.10;2252.80
56123;DHT22;42426;46.104;19.656;2022-11-11T05:52:48;231.00;2252.80
56123;DHT22;42426;46.104;19.656;2022-11-11T05:55:15;231.10;2252.80
56123;DHT22;42426;46.104;19.656;2022-11-11T05:57:40;231.10;2252.80
56123;DHT22;42426;46.104;19.656;2022-11-11T06:00:07;231.00;2252.80
56123;DHT22;42426;46.104;19.656;2022-11-11T06:02:47;231.00;2252.80
56123;DHT22;42426;46.104;19.656;2022-11-11T06:05:12;231.00;2252.80
56123;DHT22;42426;46.104;19.656;2022-11-11T06:07:39;231.00;2252.80
56123;DHT22;42426;46.104;19.656;2022-11-11T06:10:05;230.90;2252.80
56123;DHT22;42426;46.104;19.656;2022-11-11T06:12:55;230.90;2252.80
56123;DHT22;42426;46.104;19.656;2022-11-11T06:15:37;230.90;2252.80
56123;DHT22;42426;46.104;19.656;2022-11-11T06:18:04;230.90;2252.80
56123;DHT22;42426;46.104;19.656;2022-11-11T06:20:30;230.90;2252.80
56123;DHT22;42426;46.104;19.656;2022-11-11T06:22:56;230.90;2252.80
56123;DHT22;42426;46.104;19.656;2022-11-11T06:25:32;230.90;2252.80
56123;DHT22;42426;46.104;19.656;2022-11-11T06:28:28;230.90;2252.80
56123;DHT22;42426;46.104;19.656;2022-11-11T06:30:54;231.00;2252.80
56123;DHT22;42426;46.104;19.656;2022-11-11T06:33:20;231.00;2252.80
56123;DHT22;42426;46.104;19.656;2022-11-11T06:35:47;231.00;2252.80
56123;DHT22;42426;46.104;19.656;2022-11-11T06:38:13;230.90;2252.80
56123;DHT22;42426;46.104;19.656;2022-11-11T06:40:41;231.00;2252.80
56123;DHT22;42426;46.104;19.656;2022-11-11T06:43:06;231.00;2252.80
56123;DHT22;42426;46.104;19.656;2022-11-11T06:45:32;231.00;2252.80
56123;DHT22;42426;46.104;19.656;2022-11-11T06:48:02;230.90;2252.80
56123;DHT22;42426;46.104;19.656;2022-11-11T06:50:28;230.90;2252.80
56123;DHT22;42426;46.104;19.656;2022-11-11T06:52:54;230.80;2252.80
56123;DHT22;42426;46.104;19.656;2022-11-11T06:55:20;230.90;2252.80
56123;DHT22;42426;46.104;19.656;2022-11-11T06:57:46;230.90;2252.80
56123;DHT22;42426;46.104;19.656;2022-11-11T07:00:13;230.90;2252.80
56123;DHT22;42426;46.104;19.656;2022-11-11T07:02:39;230.90;2252.80
56123;DHT22;42426;46.104;19.656;2022-11-11T07:05:05;230.90;2252.80
56123;DHT22;42426;46.104;19.656;2022-11-11T07:07:37;230.90;2252.80
56123;DHT22;42426;46.104;19.656;2022-11-11T07:10:04;230.90;2252.80
56123;DHT22;42426;46.104;19.656;2022-11-11T07:12:31;230.80;2252.80
56123;DHT22;42426;46.104;19.656;2022-11-11T07:14:58;230.90;2252.80
56123;DHT22;42426;46.104;19.656;2022-11-11T07:17:24;230.90;2252.80
56123;DHT22;42426;46.104;19.656;2022-11-11T07:19:50;231.00;2252.80
56123;DHT22;42426;46.104;19.656;2022-11-11T07:22:15;230.90;2252.80
56123;DHT22;42426;46.104;19.656;2022-11-11T07:24:41;231.00;2252.80
56123;DHT22;42426;46.104;19.656;2022-11-11T07:27:07;231.00;2252.80
56123;DHT22;42426;46.104;19.656;2022-11-11T07:29:33;231.10;2252.80
56123;DHT22;42426;46.104;19.656;2022-11-11T07:31:59;231.10;2252.80
56123;DHT22;42426;46.104;19.656;2022-11-11T07:34:24;231.10;2252.80
56123;DHT22;42426;46.104;19.656;2022-11-11T07:36:50;231.10;2252.80
56123;DHT22;42426;46.104;19.656;2022-11-11T07:39:16;231.20;2252.80
56123;DHT22;42426;46.104;19.656;2022-11-11T07:41:42;231.20;2252.80
56123;DHT22;42426;46.104;19.656;2022-11-11T07:44:08;231.20;2252.80
56123;DHT22;42426;46.104;19.656;2022-11-11T07:46:33;231.20;2252.80
56123;DHT22;42426;46.104;19.656;2022-11-11T07:48:59;231.30;2252.80
56123;DHT22;42426;46.104;19.656;2022-11-11T07:51:25;231.30;2252.80
56123;DHT22;42426;46.104;19.656;2022-11-11T07:53:50;231.30;2252.80
56123;DHT22;42426;46.104;19.656;2022-11-11T07:56:16;256.00;2252.80
56123;DHT22;42426;46.104;19.656;2022-11-11T07:58:42;256.00;2252.80
56123;DHT22;42426;46.104;19.656;2022-11-11T08:01:07;256.10;2252.80
56123;DHT22;42426;46.104;19.656;2022-11-11T08:03:35;256.20;2252.80
56123;DHT22;42426;46.104;19.656;2022-11-11T08:06:17;256.20;2252.80
56123;DHT22;42426;46.104;19.656;2022-11-11T08:08:44;256.30;2252.80
56123;DHT22;42426;46.104;19.656;2022-11-11T08:11:11;256.30;2252.80
56123;DHT22;42426;46.104;19.656;2022-11-11T08:13:37;256.30;2252.80
56123;DHT22;42426;46.104;19.656;2022-11-11T08:16:10;256.40;2252.80
56123;DHT22;42426;46.104;19.656;2022-11-11T08:18:36;256.40;2252.80
56123;DHT22;42426;46.104;19.656;2022-11-11T08:21:03;256.50;2252.80
56123;DHT22;42426;46.104;19.656;2022-11-11T08:23:29;256.60;2252.80
56123;DHT22;42426;46.104;19.656;2022-11-11T08:25:59;256.70;2252.80
56123;DHT22;42426;46.104;19.656;2022-11-11T08:28:26;256.70;2252.80
56123;DHT22;42426;46.104;19.656;2022-11-11T08:30:52;256.80;2252.80
56123;DHT22;42426;46.104;19.656;2022-11-11T08:33:18;281.60;2278.40
56123;DHT22;42426;46.104;19.656;2022-11-11T08:35:44;281.80;2278.40
56123;DHT22;42426;46.104;19.656;2022-11-11T08:38:10;281.70;2278.40
56123;DHT22;42426;46.104;19.656;2022-11-11T08:40:39;281.70;2278.40
56123;DHT22;42426;46.104;19.656;2022-11-11T08:43:05;281.80;2278.40
56123;DHT22;42426;46.104;19.656;2022-11-11T08:45:30;281.80;2278.40
56123;DHT22;42426;46.104;19.656;2022-11-11T08:47:56;281.90;2278.40
56123;DHT22;42426;46.104;19.656;2022-11-11T15:20:03;333.60;2329.60
56123;DHT22;42426;46.104;19.656;2022-11-11T15:37:02;333.60;2329.60
56123;DHT22;42426;46.104;19.656;2022-11-11T15:39:38;333.40;2329.60
56123;DHT22;42426;46.104;19.656;2022-11-11T15:42:04;333.40;2329.60
56123;DHT22;42426;46.104;19.656;2022-11-11T15:44:36;333.30;2329.60
56123;DHT22;42426;46.104;19.656;2022-11-11T15:47:02;333.30;2329.60
56123;DHT22;42426;46.104;19.656;2022-11-11T15:52:28;333.30;2329.60
56123;DHT22;42426;46.104;19.656;2022-11-11T15:54:55;333.20;2329.60
56123;DHT22;42426;46.104;19.656;2022-11-11T15:57:32;333.30;2329.60
56123;DHT22;42426;46.104;19.656;2022-11-11T16:00:00;333.40;2329.60
56123;DHT22;42426;46.104;19.656;2022-11-11T16:02:31;333.20;2329.60
56123;DHT22;42426;46.104;19.656;2022-11-11T16:05:09;333.10;2329.60
56123;DHT22;42426;46.104;19.656;2022-11-11T16:12:45;333.30;2329.60
56123;DHT22;42426;46.104;19.656;2022-11-11T16:37:53;333.10;2329.60
56123;DHT22;42426;46.104;19.656;2022-11-11T16:40:35;333.00;2329.60
56123;DHT22;42426;46.104;19.656;2022-11-11T16:43:17;332.80;2329.60
56123;DHT22;42426;46.104;19.656;2022-11-11T16:46:07;332.80;2329.60
56123;DHT22;42426;46.104;19.656;2022-11-11T16:51:18;332.80;2329.60
56123;DHT22;42426;46.104;19.656;2022-11-11T16:54:17;332.80;2329.60
56123;DHT22;42426;46.104;19.656;2022-11-11T16:56:48;308.10;2304.00
56123;DHT22;42426;46.104;19.656;2022-11-11T16:59:23;308.10;2304.00
56123;DHT22;42426;46.104;19.656;2022-11-11T17:01:51;308.00;2304.00
56123;DHT22;42426;46.104;19.656;2022-11-11T17:04:17;308.00;2304.00
56123;DHT22;42426;46.104;19.656;2022-11-11T17:41:27;307.50;2304.00
56123;DHT22;42426;46.104;19.656;2022-11-11T17:43:53;307.40;2304.00
56123;DHT22;42426;46.104;19.656;2022-11-11T17:46:18;307.30;2304.00
56123;DHT22;42426;46.104;19.656;2022-11-11T17:48:44;307.30;2304.00
56123;DHT22;42426;46.104;19.656;2022-11-11T17:51:09;307.30;2304.00
56123;DHT22;42426;46.104;19.656;2022-11-11T17:53:36;307.30;2304.00
56123;DHT22;42426;46.104;19.656;2022-11-11T17:56:03;307.30;2304.00
56123;DHT22;42426;46.104;19.656;2022-11-11T17:58:29;307.30;2304.00
56123;DHT22;42426;46.104;19.656;2022-11-11T18:01:10;307.30;2304.00
56123;DHT22;42426;46.104;19.656;2022-11-11T18:03:37;307.20;2304.00
56123;DHT22;42426;46.104;19.656;2022-11-11T18:06:03;307.20;2304.00
